createdAt,value
2018-06-16T00:01:10.057Z,13.90
2018-06-16T00:03:41.590Z,13.80
2018-06-16T00:06:13.022Z,13.80
2018-06-16T00:08:44.872Z,13.70
2018-06-16T00:11:17.129Z,13.70
2018-06-16T00:13:49.012Z,13.70
2018-06-16T00:16:21.119Z,13.60
2018-06-16T00:18:53.756Z,13.60
2018-06-16T00:21:26.324Z,13.50
2018-06-16T00:24:00.492Z,13.50
2018-06-16T00:26:32.476Z,13.40
2018-06-16T00:34:05.468Z,13.30
2018-06-16T00:36:37.328Z,13.30
2018-06-16T00:39:11.941Z,13.20
2018-06-16T00:41:43.370Z,13.20
2018-06-16T00:44:15.047Z,13.20
2018-06-16T00:46:47.230Z,13.10
2018-06-16T00:49:19.596Z,13.10
2018-06-16T00:51:52.067Z,13.00
2018-06-16T00:54:23.385Z,13.00
2018-06-16T01:00:29.556Z,12.90
2018-06-16T01:03:00.975Z,12.80
2018-06-16T01:05:32.883Z,12.80
2018-06-16T01:08:04.966Z,12.80
2018-06-16T01:10:36.405Z,12.70
2018-06-16T01:13:08.894Z,12.70
2018-06-16T01:15:40.332Z,12.60
2018-06-16T01:18:13.163Z,12.50
2018-06-16T01:20:45.635Z,12.50
2018-06-16T01:23:17.326Z,12.40
2018-06-16T01:25:49.275Z,12.40
2018-06-16T01:30:51.622Z,12.40
2018-06-16T01:33:23.305Z,12.30
2018-06-16T01:35:54.977Z,12.20
2018-06-16T01:38:27.418Z,12.20
2018-06-16T01:40:58.837Z,12.10
2018-06-16T01:43:30.452Z,12.10
2018-06-16T01:46:04.125Z,12.20
2018-06-16T01:48:35.754Z,12.10
2018-06-16T01:51:07.985Z,12.10
2018-06-16T01:53:39.935Z,12.10
2018-06-16T01:56:12.838Z,12.10
2018-06-16T01:58:45.712Z,12.10
2018-06-16T02:03:49.881Z,12.10
2018-06-16T02:06:23.786Z,12.10
2018-06-16T02:08:57.572Z,12.10
2018-06-16T02:11:30.233Z,12.10
2018-06-16T02:14:03.920Z,12.10
2018-06-16T02:16:36.735Z,12.10
2018-06-16T02:19:09.907Z,12.00
2018-06-16T02:21:44.106Z,12.00
2018-06-16T02:24:15.489Z,11.90
2018-06-16T02:26:49.211Z,11.90
2018-06-16T02:29:23.136Z,11.90
2018-06-16T02:34:27.976Z,11.80
2018-06-16T02:37:00.467Z,11.80
2018-06-16T02:42:08.382Z,11.80
2018-06-16T02:44:40.795Z,11.80
2018-06-16T02:47:13.305Z,11.80
2018-06-16T02:49:45.113Z,11.80
2018-06-16T02:54:48.368Z,11.80
2018-06-16T02:57:20.597Z,11.80
2018-06-16T02:59:52.516Z,11.80
2018-06-16T03:02:26.173Z,11.90
2018-06-16T03:07:30.485Z,11.90
2018-06-16T03:12:33.722Z,11.90
2018-06-16T03:17:36.865Z,11.90
2018-06-16T03:20:08.656Z,11.90
2018-06-16T03:22:40.517Z,11.90
2018-06-16T03:25:12.292Z,11.90
2018-06-16T03:30:16.335Z,11.90
2018-06-16T03:35:18.599Z,12.00
2018-06-16T03:37:50.398Z,12.00
2018-06-16T03:42:53.447Z,12.10
2018-06-16T03:45:24.993Z,12.20
2018-06-16T03:47:57.740Z,12.30
2018-06-16T03:50:29.689Z,12.30
2018-06-16T03:53:01.135Z,12.40
2018-06-16T03:55:32.746Z,12.50
2018-06-16T03:58:05.996Z,12.60
2018-06-16T04:00:38.347Z,12.70
2018-06-16T04:03:10.488Z,12.80
2018-06-16T04:05:42.279Z,12.90
2018-06-16T04:08:13.978Z,12.90
2018-06-16T04:13:16.744Z,13.10
2018-06-16T04:15:48.933Z,13.20
2018-06-16T04:18:20.344Z,13.30
2018-06-16T04:20:51.931Z,13.30
2018-06-16T04:23:24.817Z,13.40
2018-06-16T04:25:57.261Z,13.50
2018-06-16T04:28:28.945Z,13.60
2018-06-16T04:31:02.088Z,13.70
2018-06-16T04:38:37.930Z,14.00
2018-06-16T04:41:11.238Z,14.00
2018-06-16T04:43:44.506Z,14.10
2018-06-16T04:46:17.834Z,14.20
2018-06-16T04:48:50.326Z,14.30
2018-06-16T04:51:22.097Z,14.40
2018-06-16T04:53:54.711Z,14.60
2018-06-16T04:56:26.241Z,14.70
2018-06-16T05:01:27.922Z,14.80
2018-06-16T05:04:00.461Z,14.90
2018-06-16T05:06:31.801Z,15.00
2018-06-16T05:09:07.478Z,15.10
2018-06-16T05:11:39.497Z,15.20
2018-06-16T05:14:12.598Z,15.30
2018-06-16T05:16:44.685Z,15.40
2018-06-16T05:19:17.546Z,15.40
2018-06-16T05:21:49.125Z,15.50
2018-06-16T05:24:21.398Z,15.60
2018-06-16T05:26:52.746Z,15.60
2018-06-16T05:29:24.912Z,15.70
2018-06-16T05:31:56.332Z,15.80
2018-06-16T05:34:28.903Z,15.90
2018-06-16T05:37:03.516Z,15.90
2018-06-16T05:42:06.096Z,16.10
2018-06-16T05:44:37.901Z,16.20
2018-06-16T05:47:10.906Z,16.30
2018-06-16T05:49:42.541Z,16.30
2018-06-16T05:52:14.637Z,16.30
2018-06-16T05:54:46.355Z,16.40
2018-06-16T05:57:18.179Z,16.50
2018-06-16T05:59:49.650Z,16.50
2018-06-16T06:02:21.417Z,16.60
2018-06-16T06:04:53.850Z,16.70
2018-06-16T06:07:25.652Z,16.70
2018-06-16T06:09:57.630Z,16.80
2018-06-16T06:15:01.087Z,17.00
2018-06-16T06:17:33.479Z,17.00
2018-06-16T06:20:04.921Z,17.10
2018-06-16T06:22:36.738Z,17.20
2018-06-16T06:25:08.595Z,17.30
2018-06-16T06:30:11.252Z,17.40
2018-06-16T06:32:43.311Z,17.50
2018-06-16T06:35:15.012Z,17.60
2018-06-16T06:37:46.491Z,17.60
2018-06-16T06:40:18.739Z,17.70
2018-06-16T06:42:50.408Z,17.80
2018-06-16T06:47:54.442Z,17.90
2018-06-16T06:52:57.336Z,18.00
2018-06-16T06:55:29.724Z,18.10
2018-06-16T07:00:32.872Z,18.20
2018-06-16T07:03:05.607Z,18.30
2018-06-16T07:05:39.597Z,18.40
2018-06-16T07:08:11.726Z,18.40
2018-06-16T07:10:43.262Z,18.50
2018-06-16T07:13:14.287Z,18.60
2018-06-16T07:18:17.437Z,18.60
2018-06-16T07:20:50.610Z,18.70
2018-06-16T07:23:21.253Z,18.70
2018-06-16T07:28:22.695Z,19.00
2018-06-16T07:30:55.097Z,18.90
2018-06-16T07:33:25.812Z,19.00
2018-06-16T07:35:56.779Z,19.00
2018-06-16T07:38:27.433Z,19.10
2018-06-16T07:40:58.246Z,19.20
2018-06-16T07:43:29.801Z,19.30
2018-06-16T07:46:05.181Z,19.40
2018-06-16T07:48:37.154Z,19.40
2018-06-16T07:51:09.185Z,19.50
2018-06-16T07:53:41.590Z,19.50
2018-06-16T07:56:14.910Z,19.50
2018-06-16T07:58:45.929Z,19.60
2018-06-16T08:01:17.633Z,19.60
2018-06-16T08:03:49.165Z,19.60
2018-06-16T08:06:20.257Z,19.60
2018-06-16T08:08:53.590Z,19.50
2018-06-16T08:11:25.184Z,19.60
2018-06-16T08:13:57.013Z,19.70
2018-06-16T08:16:30.130Z,19.70
2018-06-16T08:19:01.130Z,19.70
2018-06-16T08:21:34.095Z,19.70
2018-06-16T08:26:36.919Z,19.60
2018-06-16T08:29:08.381Z,19.60
2018-06-16T08:31:39.651Z,19.60
2018-06-16T08:34:10.771Z,19.70
2018-06-16T08:36:42.060Z,19.80
2018-06-16T08:39:13.803Z,20.00
2018-06-16T08:41:45.894Z,20.10
2018-06-16T08:46:48.145Z,20.30
2018-06-16T08:49:19.775Z,20.40
2018-06-16T08:51:51.260Z,20.50
2018-06-16T08:54:23.009Z,20.50
2018-06-16T08:56:54.851Z,20.50
2018-06-16T08:59:29.399Z,20.40
2018-06-16T09:02:01.769Z,20.50
2018-06-16T09:04:33.509Z,20.60
2018-06-16T09:07:04.850Z,20.90
2018-06-16T09:12:08.544Z,20.90
2018-06-16T09:14:40.646Z,21.00
2018-06-16T09:17:11.781Z,21.00
2018-06-16T09:19:43.183Z,21.10
2018-06-16T09:22:15.978Z,20.90
2018-06-16T09:24:47.657Z,20.90
2018-06-16T09:27:20.250Z,20.90
2018-06-16T09:32:22.031Z,21.10
2018-06-16T09:37:23.406Z,21.40
2018-06-16T09:42:25.245Z,21.80
2018-06-16T09:44:56.337Z,22.00
2018-06-16T09:49:57.941Z,22.30
2018-06-16T09:52:29.520Z,22.40
2018-06-16T09:55:01.868Z,22.50
2018-06-16T09:57:35.006Z,22.60
2018-06-16T10:00:10.973Z,22.60
2018-06-16T10:02:42.172Z,22.60
2018-06-16T10:05:14.198Z,22.60
2018-06-16T10:07:45.129Z,22.60
2018-06-16T10:10:17.504Z,22.80
2018-06-16T10:12:49.085Z,22.70
2018-06-16T10:15:21.363Z,22.40
2018-06-16T10:17:53.734Z,22.10
2018-06-16T10:25:29.836Z,22.10
2018-06-16T10:30:32.810Z,22.60
2018-06-16T10:33:07.816Z,22.90
2018-06-16T10:35:39.262Z,23.10
2018-06-16T10:38:10.836Z,23.20
2018-06-16T10:40:43.472Z,23.40
2018-06-16T10:43:15.161Z,23.50
2018-06-16T10:45:47.119Z,23.60
2018-06-16T10:48:18.623Z,23.60
2018-06-16T10:50:52.502Z,23.50
2018-06-16T10:53:24.261Z,23.50
2018-06-16T10:55:56.098Z,23.50
2018-06-16T10:58:31.375Z,23.50
2018-06-16T11:01:03.045Z,23.40
2018-06-16T11:03:34.694Z,23.30
2018-06-16T11:06:08.047Z,23.20
2018-06-16T11:08:42.448Z,23.10
2018-06-16T11:13:45.672Z,23.00
2018-06-16T11:16:20.986Z,22.90
2018-06-16T11:18:54.805Z,22.80
2018-06-16T11:21:27.458Z,22.80
2018-06-16T11:23:59.017Z,22.70
2018-06-16T11:26:31.226Z,22.70
2018-06-16T11:31:35.823Z,22.50
2018-06-16T11:34:07.249Z,22.50
2018-06-16T11:36:39.170Z,22.50
2018-06-16T11:39:12.328Z,22.50
2018-06-16T11:41:43.762Z,22.60
2018-06-16T11:44:15.230Z,22.70
2018-06-16T11:46:46.729Z,22.70
2018-06-16T11:49:18.380Z,22.70
2018-06-16T11:51:50.359Z,22.80
2018-06-16T11:54:23.338Z,22.90
2018-06-16T11:56:55.061Z,23.00
2018-06-16T11:59:27.833Z,23.10
2018-06-16T12:02:00.220Z,23.30
2018-06-16T12:04:32.035Z,23.40
2018-06-16T12:07:03.993Z,23.60
2018-06-16T12:09:35.628Z,23.70
2018-06-16T12:12:08.064Z,23.90
2018-06-16T12:14:42.433Z,24.00
2018-06-16T12:17:14.628Z,24.10
2018-06-16T12:19:48.720Z,24.30
2018-06-16T12:27:21.862Z,24.30
2018-06-16T12:29:52.886Z,24.20
2018-06-16T12:32:23.790Z,24.20
2018-06-16T12:34:55.415Z,24.10
2018-06-16T12:39:56.918Z,24.30
2018-06-16T12:42:27.922Z,24.10
2018-06-16T12:50:00.624Z,23.90
2018-06-16T12:52:31.910Z,23.90
2018-06-16T12:55:02.972Z,23.90
2018-06-16T12:57:34.840Z,23.90
2018-06-16T13:00:05.820Z,23.90
2018-06-16T13:05:08.848Z,23.80
2018-06-16T13:10:11.165Z,23.70
2018-06-16T13:12:44.342Z,23.60
2018-06-16T13:20:20.750Z,23.50
2018-06-16T13:25:23.004Z,23.70
2018-06-16T13:27:53.724Z,23.70
2018-06-16T13:30:24.768Z,23.90
2018-06-16T13:32:55.605Z,23.90
2018-06-16T13:35:26.491Z,23.90
2018-06-16T13:37:57.228Z,23.80
2018-06-16T13:40:28.010Z,23.70
2018-06-16T13:42:58.755Z,23.80
2018-06-16T13:45:29.500Z,23.90
2018-06-16T13:48:00.272Z,23.90
2018-06-16T13:50:31.409Z,23.90
2018-06-16T13:53:02.370Z,23.90
2018-06-16T13:55:33.483Z,23.90
2018-06-16T13:58:04.361Z,24.00
2018-06-16T14:00:35.110Z,24.10
2018-06-16T14:03:06.429Z,24.10
2018-06-16T14:05:37.288Z,24.20
2018-06-16T14:10:38.594Z,24.20
2018-06-16T14:13:09.529Z,24.20
2018-06-16T14:15:40.287Z,24.20
2018-06-16T14:18:11.393Z,24.30
2018-06-16T14:20:42.211Z,24.30
2018-06-16T14:23:13.040Z,24.20
2018-06-16T14:25:44.137Z,24.30
2018-06-16T14:28:14.918Z,24.30
2018-06-16T14:30:46.339Z,24.30
2018-06-16T14:33:17.380Z,24.20
2018-06-16T14:35:49.716Z,24.20
2018-06-16T14:38:20.783Z,24.20
2018-06-16T14:40:51.946Z,24.30
2018-06-16T14:43:23.957Z,24.40
2018-06-16T14:45:55.080Z,24.60
2018-06-16T14:48:26.127Z,24.60
2018-06-16T14:50:57.848Z,24.70
2018-06-16T14:53:28.946Z,24.70
2018-06-16T14:56:01.145Z,24.60
2018-06-16T14:58:32.666Z,24.60
2018-06-16T15:01:03.887Z,24.60
2018-06-16T15:03:35.680Z,24.60
2018-06-16T15:06:07.517Z,24.70
2018-06-16T15:08:38.228Z,24.80
2018-06-16T15:11:09.128Z,24.90
2018-06-16T15:13:39.855Z,25.10
2018-06-16T15:16:10.796Z,25.10
2018-06-16T15:18:41.539Z,25.00
2018-06-16T15:21:12.392Z,25.00
2018-06-16T15:23:43.251Z,25.10
2018-06-16T15:26:14.013Z,25.10
2018-06-16T15:28:44.713Z,25.20
2018-06-16T15:33:45.417Z,25.10
2018-06-16T15:36:16.082Z,25.10
2018-06-16T15:38:47.134Z,25.00
2018-06-16T15:41:17.882Z,24.90
2018-06-16T15:43:48.679Z,24.80
2018-06-16T15:46:20.827Z,24.70
2018-06-16T15:48:51.554Z,24.60
2018-06-16T15:53:53.019Z,24.30
2018-06-16T15:56:23.758Z,24.30
2018-06-16T15:58:54.704Z,24.10
2018-06-16T16:01:25.467Z,24.00
2018-06-16T16:03:56.446Z,24.00
2018-06-16T16:06:27.208Z,23.90
2018-06-16T16:11:27.866Z,23.70
2018-06-16T16:16:28.470Z,23.50
2018-06-16T16:18:59.290Z,23.40
2018-06-16T16:21:30.732Z,23.30
2018-06-16T16:24:01.465Z,23.30
2018-06-16T16:26:32.242Z,23.30
2018-06-16T16:29:03.354Z,23.20
2018-06-16T16:31:34.133Z,23.20
2018-06-16T16:34:05.374Z,23.20
2018-06-16T16:36:36.409Z,23.10
2018-06-16T16:39:09.800Z,23.10
2018-06-16T16:41:40.933Z,23.00
2018-06-16T16:44:11.614Z,22.90
2018-06-16T16:46:42.475Z,22.90
2018-06-16T16:49:13.634Z,22.80
2018-06-16T16:51:44.633Z,22.70
2018-06-16T16:54:15.890Z,22.70
2018-06-16T16:56:47.173Z,22.60
2018-06-16T16:59:18.063Z,22.50
2018-06-16T17:01:49.051Z,22.50
2018-06-16T17:04:20.335Z,22.50
2018-06-16T17:06:51.509Z,22.40
2018-06-16T17:09:22.298Z,22.40
2018-06-16T17:11:53.268Z,22.40
2018-06-16T17:14:24.260Z,22.30
2018-06-16T17:16:55.753Z,22.30
2018-06-16T17:19:26.613Z,22.30
2018-06-16T17:21:57.680Z,22.20
2018-06-16T17:24:28.483Z,22.20
2018-06-16T17:29:31.533Z,22.10
2018-06-16T17:32:03.969Z,22.10
2018-06-16T17:34:35.344Z,22.10
2018-06-16T17:37:07.304Z,22.00
2018-06-16T17:39:39.825Z,21.90
2018-06-16T17:44:43.101Z,21.70
2018-06-16T17:47:14.336Z,21.60
2018-06-16T17:49:45.660Z,21.60
2018-06-16T17:52:16.882Z,21.50
2018-06-16T17:57:20.634Z,21.40
2018-06-16T17:59:52.760Z,21.30
2018-06-16T18:02:23.999Z,21.20
2018-06-16T18:04:56.457Z,21.20
2018-06-16T18:07:28.596Z,21.10
2018-06-16T18:10:00.645Z,21.10
2018-06-16T18:12:33.426Z,21.00
2018-06-16T18:15:05.899Z,21.00
2018-06-16T18:20:08.848Z,21.00
2018-06-16T18:22:41.777Z,20.90
2018-06-16T18:25:14.122Z,20.80
2018-06-16T18:27:46.247Z,20.80
2018-06-16T18:32:50.928Z,20.70
2018-06-16T18:35:22.857Z,20.60
2018-06-16T18:37:56.254Z,20.50
2018-06-16T18:40:28.925Z,20.50
2018-06-16T18:43:02.077Z,20.40
2018-06-16T18:45:33.497Z,20.30
2018-06-16T18:48:04.587Z,20.20
2018-06-16T18:50:36.107Z,20.20
2018-06-16T18:53:07.667Z,20.10
2018-06-16T18:55:39.712Z,20.00
2018-06-16T18:58:10.854Z,20.00
2018-06-16T19:00:42.153Z,20.00
2018-06-16T19:03:14.850Z,19.90
2018-06-16T19:05:46.116Z,19.80
2018-06-16T19:10:47.976Z,19.70
2018-06-16T19:13:18.852Z,19.60
2018-06-16T19:15:49.824Z,19.60
2018-06-16T19:18:20.588Z,19.60
2018-06-16T19:20:51.682Z,19.50
2018-06-16T19:23:22.801Z,19.50
2018-06-16T19:25:53.617Z,19.40
2018-06-16T19:28:24.378Z,19.40
2018-06-16T19:30:55.470Z,19.30
2018-06-16T19:33:27.866Z,19.30
2018-06-16T19:36:01.053Z,19.20
2018-06-16T19:38:31.949Z,19.20
2018-06-16T19:41:02.713Z,19.10
2018-06-16T19:43:33.523Z,19.10
2018-06-16T19:46:04.257Z,19.00
2018-06-16T19:48:35.046Z,19.00
2018-06-16T19:51:05.844Z,19.00
2018-06-16T19:56:06.957Z,18.90
2018-06-16T19:58:37.779Z,18.80
2018-06-16T20:01:08.556Z,18.70
2018-06-16T20:03:39.436Z,18.70
2018-06-16T20:06:10.253Z,18.60
2018-06-16T20:08:41.013Z,18.60
2018-06-16T20:11:12.175Z,18.50
2018-06-16T20:13:42.985Z,18.50
2018-06-16T20:18:43.811Z,18.40
2018-06-16T20:21:14.758Z,18.40
2018-06-16T20:23:46.417Z,18.30
2018-06-16T20:26:17.466Z,18.30
2018-06-16T20:28:49.681Z,18.20
2018-06-16T20:31:21.811Z,18.20
2018-06-16T20:33:52.809Z,18.10
2018-06-16T20:36:24.694Z,18.10
2018-06-16T20:38:55.628Z,18.00
2018-06-16T20:41:27.194Z,18.00
2018-06-16T20:43:58.446Z,17.90
2018-06-16T20:46:31.147Z,17.80
2018-06-16T20:49:02.167Z,17.80
2018-06-16T20:51:33.402Z,17.80
2018-06-16T20:54:04.332Z,17.70
2018-06-16T20:56:35.050Z,17.60
2018-06-16T20:59:06.188Z,17.60
2018-06-16T21:04:07.762Z,17.50
2018-06-16T21:06:38.845Z,17.40
2018-06-16T21:09:11.431Z,17.40
2018-06-16T21:11:42.189Z,17.30
2018-06-16T21:14:12.990Z,17.30
2018-06-16T21:16:43.784Z,17.20
2018-06-16T21:19:14.499Z,17.10
2018-06-16T21:24:15.349Z,17.00
2018-06-16T21:26:46.289Z,17.00
2018-06-16T21:29:17.062Z,16.90
2018-06-16T21:31:48.101Z,16.90
2018-06-16T21:34:19.166Z,16.80
2018-06-16T21:39:20.371Z,16.70
2018-06-16T21:41:51.101Z,16.70
2018-06-16T21:44:21.841Z,16.60
2018-06-16T21:46:52.618Z,16.50
2018-06-16T21:49:23.382Z,16.50
2018-06-16T21:51:54.503Z,16.50
2018-06-16T21:54:25.216Z,16.50
2018-06-16T21:56:56.312Z,16.40
2018-06-16T21:59:27.098Z,16.40
2018-06-16T22:01:57.814Z,16.40
2018-06-16T22:04:28.884Z,16.30
2018-06-16T22:07:01.535Z,16.30
2018-06-16T22:09:32.652Z,16.30
2018-06-16T22:12:03.654Z,16.20
2018-06-16T22:14:35.331Z,16.20
2018-06-16T22:17:06.580Z,16.20
2018-06-16T22:19:38.921Z,16.20
2018-06-16T22:22:10.949Z,16.20
2018-06-16T22:24:42.745Z,16.10
2018-06-16T22:27:14.446Z,16.10
2018-06-16T22:29:45.868Z,16.00
2018-06-16T22:32:16.829Z,16.00
2018-06-16T22:34:48.813Z,16.00
2018-06-16T22:37:19.908Z,15.90
2018-06-16T22:39:50.925Z,15.90
2018-06-16T22:42:22.007Z,15.80
2018-06-16T22:44:53.183Z,15.80
2018-06-16T22:47:24.565Z,15.80
2018-06-16T22:49:55.956Z,15.80
2018-06-16T22:52:26.925Z,15.70
2018-06-16T22:54:58.982Z,15.70
2018-06-16T22:57:31.105Z,15.70
2018-06-16T23:00:02.070Z,15.70
2018-06-16T23:02:33.942Z,15.70
2018-06-16T23:05:05.062Z,15.70
2018-06-16T23:07:35.878Z,15.70
2018-06-16T23:10:07.568Z,15.70
2018-06-16T23:15:09.126Z,15.60
2018-06-16T23:17:40.528Z,15.60
2018-06-16T23:20:11.358Z,15.60
2018-06-16T23:22:41.844Z,15.60
2018-06-16T23:25:13.576Z,15.60
2018-06-16T23:27:46.854Z,15.50
2018-06-16T23:30:18.159Z,15.50
2018-06-16T23:32:49.635Z,15.50
2018-06-16T23:35:21.095Z,15.50
2018-06-16T23:37:52.950Z,15.50
2018-06-16T23:40:25.279Z,15.50
2018-06-16T23:42:56.551Z,15.50
2018-06-16T23:45:28.589Z,15.50
2018-06-16T23:47:59.969Z,15.50
2018-06-16T23:50:31.160Z,15.50
2018-06-16T23:53:02.973Z,15.40
2018-06-16T23:55:34.828Z,15.40
2018-06-16T23:58:07.206Z,15.40
